SKSP/ADZ METAR and TAF weather

Enter ICAO airport designator
Station Type Date Time Source
SKSP METAR 2021/07/28 20:00 UTC NOAA

SKSP 282000Z 07014KT 9999 SCT017 BKN200 30/25 Q1010 RMK A2984


Station Type Date Time Source
SKSP Decoded METAR 2021/07/28 20:00 UTC NOAA

San Andres Isla / Sesquicentenario, Colombia (SKSP) 12-35N 081-43W 6M
Jul 28, 2021 - 04:00 PM EDT / 2021.07.28 2000 UTC
Wind: from the ENE (070 degrees) at 16 MPH (14 KT):0
Visibility: greater than 7 mile(s):0
Sky conditions: mostly cloudy
Temperature: 86 F (30 C)
Heat index: 96.8 F (36.0 C):1
Dew Point: 77 F (25 C)
Relative Humidity: 74%
Pressure (altimeter): 29.83 in. Hg (1010 hPa)
ob: SKSP 282000Z 07014KT 9999 SCT017 BKN200 30/25 Q1010 RMK A2984
cycle: 20

Station Type Date Time Source
SKSP TAF 2021/07/28 18:39 UTC NOAA

TAF SKSP 281630Z 2818/2918 09014KT 9999 FEW020 TX31/2820Z TN27/2910Z

Example: see airport list